Terminal Aerodrome Forecast
Issued by NWS Wakefield, VA

Home | Current Version | Previous Version | Text Only | Print | Product List | Glossary On
Versions: 1 2 3 4 5 6 7 8 9 10 11 12 13 14 15 16 17 18 19 20 21
000
FTUS41 KAKQ 020500 CCA
TAFSBY
TAF COR
KSBY 020559Z 0206/0306 24004KT 1 1/2SM BR OVC002
     FM021300 23008KT 4SM BR OVC007
     FM021500 32013G20KT P6SM BKN050
     FM021800 31011KT P6SM SCT250=

USA.gov is the U.S. government's official web portal to all federal, state and local government web resources and services.